Terminal Aerodrome Forecast
Issued by NWS

Home | Current Version | Previous Version | Text Only | Print | Product List | Glossary On
Versions: 1 2 3 4 5 6 7 8 9 10 11 12 13 14
000
FTXN70 PGUM 282207 RRV
TAFTPN
TAF
PTPN 282207Z 2822/2918 09007KT P6SM VCSH FEW016 SCT040 BKN140
      TEMPO 2822/2902 -SHRA SCT014 BKN030=

USA.gov is the U.S. government's official web portal to all federal, state and local government web resources and services.